Singer Island, Florida
Current Conditions -  °F | °C
As of 12:53 PM on Sunday 21 Dec 2014 (Local Time) from KPBI Reporting Station
Broken Clouds Broken Clouds  
Wind Chill: 81°   Ceiling: 23000
Heat Index: 83°   Visibility: 10mi
Dew Point: 65°   Wind: 8mph
Humidity: 58%   Direction: 160°SSE
Pressure: 30.06"   Gusts: NA
Location:  26.7789°N, 80.0745°W
Report Text: KPBI 211753Z 16007KT 10SM SCT035 SCT100 BKN230 27/18 A3006 RMK AO2 SLP177 T02720183 10272 20167 58018
Loading
Personal Weather Stations






























Interactive Weather Map New forecast layout! Learn more

10-Day Weather Forecast

Advertisements
Track Severe Weather on mobile